sensor_id;sensor_type;location;lat;lon;timestamp;P1;durP1;ratioP1;P2;durP2;ratioP2
13034;SDS011;6584;48.022;11.810;2022-07-23T00:02:05;5.78;;;5.28;;
13034;SDS011;6584;48.022;11.810;2022-07-23T00:04:31;5.53;;;5.03;;
13034;SDS011;6584;48.022;11.810;2022-07-23T00:06:57;5.20;;;4.80;;
13034;SDS011;6584;48.022;11.810;2022-07-23T00:09:22;5.85;;;5.10;;
13034;SDS011;6584;48.022;11.810;2022-07-23T00:11:48;5.22;;;4.72;;
13034;SDS011;6584;48.022;11.810;2022-07-23T00:14:14;5.30;;;4.90;;
13034;SDS011;6584;48.022;11.810;2022-07-23T00:16:39;6.05;;;5.55;;
13034;SDS011;6584;48.022;11.810;2022-07-23T00:19:05;6.63;;;5.03;;
13034;SDS011;6584;48.022;11.810;2022-07-23T00:21:30;5.80;;;5.30;;
13034;SDS011;6584;48.022;11.810;2022-07-23T00:23:56;5.30;;;4.60;;
13034;SDS011;6584;48.022;11.810;2022-07-23T00:26:21;5.32;;;4.82;;
13034;SDS011;6584;48.022;11.810;2022-07-23T00:28:47;5.13;;;4.72;;
13034;SDS011;6584;48.022;11.810;2022-07-23T00:31:12;5.60;;;5.10;;
13034;SDS011;6584;48.022;11.810;2022-07-23T00:33:38;5.55;;;5.15;;
13034;SDS011;6584;48.022;11.810;2022-07-23T00:36:04;5.90;;;5.30;;
13034;SDS011;6584;48.022;11.810;2022-07-23T00:38:30;5.75;;;5.25;;
13034;SDS011;6584;48.022;11.810;2022-07-23T00:40:55;5.82;;;5.32;;
13034;SDS011;6584;48.022;11.810;2022-07-23T00:43:21;6.25;;;5.72;;
13034;SDS011;6584;48.022;11.810;2022-07-23T00:45:47;5.80;;;5.30;;
13034;SDS011;6584;48.022;11.810;2022-07-23T00:48:12;7.53;;;5.47;;
13034;SDS011;6584;48.022;11.810;2022-07-23T00:50:38;6.35;;;5.85;;
13034;SDS011;6584;48.022;11.810;2022-07-23T00:53:04;6.90;;;6.30;;
13034;SDS011;6584;48.022;11.810;2022-07-23T00:55:30;5.97;;;5.38;;
13034;SDS011;6584;48.022;11.810;2022-07-23T00:57:56;6.00;;;5.50;;
13034;SDS011;6584;48.022;11.810;2022-07-23T01:00:23;6.10;;;5.50;;
13034;SDS011;6584;48.022;11.810;2022-07-23T01:02:48;5.50;;;5.00;;
13034;SDS011;6584;48.022;11.810;2022-07-23T01:05:14;5.78;;;5.10;;
13034;SDS011;6584;48.022;11.810;2022-07-23T01:07:40;5.95;;;5.50;;
13034;SDS011;6584;48.022;11.810;2022-07-23T01:10:06;5.63;;;5.13;;
13034;SDS011;6584;48.022;11.810;2022-07-23T01:12:52;5.38;;;4.88;;
13034;SDS011;6584;48.022;11.810;2022-07-23T01:15:18;5.90;;;5.40;;
13034;SDS011;6584;48.022;11.810;2022-07-23T01:17:43;5.43;;;4.97;;
13034;SDS011;6584;48.022;11.810;2022-07-23T01:20:09;8.40;;;5.35;;
13034;SDS011;6584;48.022;11.810;2022-07-23T01:22:35;7.10;;;5.30;;
13034;SDS011;6584;48.022;11.810;2022-07-23T01:25:00;5.95;;;5.03;;
13034;SDS011;6584;48.022;11.810;2022-07-23T01:27:26;5.93;;;5.40;;
13034;SDS011;6584;48.022;11.810;2022-07-23T01:29:52;6.15;;;5.65;;
13034;SDS011;6584;48.022;11.810;2022-07-23T01:32:19;6.60;;;6.00;;
13034;SDS011;6584;48.022;11.810;2022-07-23T01:34:45;6.85;;;6.15;;
13034;SDS011;6584;48.022;11.810;2022-07-23T01:37:11;6.97;;;6.28;;
13034;SDS011;6584;48.022;11.810;2022-07-23T01:39:36;7.38;;;6.65;;
13034;SDS011;6584;48.022;11.810;2022-07-23T01:42:02;11.32;;;7.53;;
13034;SDS011;6584;48.022;11.810;2022-07-23T01:44:27;11.02;;;6.93;;
13034;SDS011;6584;48.022;11.810;2022-07-23T01:46:53;12.43;;;6.40;;
13034;SDS011;6584;48.022;11.810;2022-07-23T01:49:20;10.18;;;6.10;;
13034;SDS011;6584;48.022;11.810;2022-07-23T01:51:45;9.98;;;5.70;;
13034;SDS011;6584;48.022;11.810;2022-07-23T01:54:26;15.13;;;4.68;;
13034;SDS011;6584;48.022;11.810;2022-07-23T01:56:53;12.63;;;3.83;;
13034;SDS011;6584;48.022;11.810;2022-07-23T01:59:18;9.23;;;3.47;;
13034;SDS011;6584;48.022;11.810;2022-07-23T02:01:44;9.02;;;3.45;;
13034;SDS011;6584;48.022;11.810;2022-07-23T02:04:09;5.65;;;3.78;;
13034;SDS011;6584;48.022;11.810;2022-07-23T02:06:35;4.55;;;3.03;;
13034;SDS011;6584;48.022;11.810;2022-07-23T02:09:00;4.45;;;3.33;;
13034;SDS011;6584;48.022;11.810;2022-07-23T02:11:26;6.40;;;3.40;;
13034;SDS011;6584;48.022;11.810;2022-07-23T02:13:52;3.92;;;3.55;;
13034;SDS011;6584;48.022;11.810;2022-07-23T02:16:17;4.70;;;3.83;;
13034;SDS011;6584;48.022;11.810;2022-07-23T02:18:43;3.30;;;3.10;;
13034;SDS011;6584;48.022;11.810;2022-07-23T02:21:08;4.10;;;3.20;;
13034;SDS011;6584;48.022;11.810;2022-07-23T02:23:34;3.58;;;3.10;;
13034;SDS011;6584;48.022;11.810;2022-07-23T02:25:59;4.05;;;3.60;;
13034;SDS011;6584;48.022;11.810;2022-07-23T02:28:25;3.80;;;3.20;;
13034;SDS011;6584;48.022;11.810;2022-07-23T02:30:50;4.10;;;3.17;;
13034;SDS011;6584;48.022;11.810;2022-07-23T02:33:16;4.05;;;3.00;;
13034;SDS011;6584;48.022;11.810;2022-07-23T02:35:41;2.88;;;2.67;;
13034;SDS011;6584;48.022;11.810;2022-07-23T02:38:07;3.80;;;2.88;;
13034;SDS011;6584;48.022;11.810;2022-07-23T02:40:32;3.85;;;2.85;;
13034;SDS011;6584;48.022;11.810;2022-07-23T02:42:58;4.20;;;3.00;;
13034;SDS011;6584;48.022;11.810;2022-07-23T02:45:24;3.00;;;2.80;;
13034;SDS011;6584;48.022;11.810;2022-07-23T02:47:49;2.70;;;2.50;;
13034;SDS011;6584;48.022;11.810;2022-07-23T02:50:15;3.10;;;2.90;;
13034;SDS011;6584;48.022;11.810;2022-07-23T02:52:41;3.30;;;3.00;;
13034;SDS011;6584;48.022;11.810;2022-07-23T02:55:06;3.88;;;2.92;;
13034;SDS011;6584;48.022;11.810;2022-07-23T02:57:33;3.63;;;3.33;;
13034;SDS011;6584;48.022;11.810;2022-07-23T02:59:58;4.10;;;3.80;;
13034;SDS011;6584;48.022;11.810;2022-07-23T03:02:24;4.00;;;3.58;;
13034;SDS011;6584;48.022;11.810;2022-07-23T03:04:49;4.32;;;3.92;;
13034;SDS011;6584;48.022;11.810;2022-07-23T03:07:16;4.07;;;3.75;;
13034;SDS011;6584;48.022;11.810;2022-07-23T03:09:44;4.80;;;3.83;;
13034;SDS011;6584;48.022;11.810;2022-07-23T03:12:10;4.10;;;3.80;;
13034;SDS011;6584;48.022;11.810;2022-07-23T03:14:35;3.83;;;3.53;;
13034;SDS011;6584;48.022;11.810;2022-07-23T03:17:01;4.22;;;3.83;;
13034;SDS011;6584;48.022;11.810;2022-07-23T03:19:26;4.50;;;3.80;;
13034;SDS011;6584;48.022;11.810;2022-07-23T03:21:52;4.93;;;4.20;;
13034;SDS011;6584;48.022;11.810;2022-07-23T03:24:18;3.97;;;3.63;;
13034;SDS011;6584;48.022;11.810;2022-07-23T03:26:43;4.20;;;3.80;;
13034;SDS011;6584;48.022;11.810;2022-07-23T03:29:09;4.38;;;3.50;;
13034;SDS011;6584;48.022;11.810;2022-07-23T03:31:35;4.10;;;3.70;;
13034;SDS011;6584;48.022;11.810;2022-07-23T03:34:01;3.80;;;3.50;;
13034;SDS011;6584;48.022;11.810;2022-07-23T03:36:27;3.95;;;3.25;;
13034;SDS011;6584;48.022;11.810;2022-07-23T03:38:52;3.92;;;3.63;;
13034;SDS011;6584;48.022;11.810;2022-07-23T03:41:19;5.07;;;3.92;;
13034;SDS011;6584;48.022;11.810;2022-07-23T03:43:45;4.40;;;3.85;;
13034;SDS011;6584;48.022;11.810;2022-07-23T03:46:11;4.30;;;3.90;;
13034;SDS011;6584;48.022;11.810;2022-07-23T03:48:37;4.45;;;4.00;;
13034;SDS011;6584;48.022;11.810;2022-07-23T03:51:02;6.60;;;4.10;;
13034;SDS011;6584;48.022;11.810;2022-07-23T03:53:28;4.55;;;4.15;;
13034;SDS011;6584;48.022;11.810;2022-07-23T03:55:54;4.57;;;4.18;;
13034;SDS011;6584;48.022;11.810;2022-07-23T03:58:19;5.22;;;4.72;;
13034;SDS011;6584;48.022;11.810;2022-07-23T04:00:45;5.75;;;5.18;;
13034;SDS011;6584;48.022;11.810;2022-07-23T04:03:11;5.32;;;4.90;;
13034;SDS011;6584;48.022;11.810;2022-07-23T04:05:37;5.32;;;4.82;;
13034;SDS011;6584;48.022;11.810;2022-07-23T04:08:02;6.22;;;5.63;;
13034;SDS011;6584;48.022;11.810;2022-07-23T04:10:28;5.75;;;4.93;;
13034;SDS011;6584;48.022;11.810;2022-07-23T04:12:54;8.00;;;5.35;;
13034;SDS011;6584;48.022;11.810;2022-07-23T04:15:19;5.72;;;5.22;;
13034;SDS011;6584;48.022;11.810;2022-07-23T04:17:45;5.72;;;5.20;;
13034;SDS011;6584;48.022;11.810;2022-07-23T04:20:12;6.22;;;5.72;;
13034;SDS011;6584;48.022;11.810;2022-07-23T04:22:37;6.05;;;5.55;;
13034;SDS011;6584;48.022;11.810;2022-07-23T04:25:03;5.93;;;5.30;;
13034;SDS011;6584;48.022;11.810;2022-07-23T04:27:29;6.15;;;5.05;;
13034;SDS011;6584;48.022;11.810;2022-07-23T04:29:54;5.07;;;4.63;;
13034;SDS011;6584;48.022;11.810;2022-07-23T04:32:20;5.93;;;5.00;;
13034;SDS011;6584;48.022;11.810;2022-07-23T04:34:45;5.75;;;5.25;;
13034;SDS011;6584;48.022;11.810;2022-07-23T04:37:11;6.80;;;5.25;;
13034;SDS011;6584;48.022;11.810;2022-07-23T04:39:36;5.50;;;4.93;;
13034;SDS011;6584;48.022;11.810;2022-07-23T04:42:02;5.55;;;5.05;;
13034;SDS011;6584;48.022;11.810;2022-07-23T04:44:28;5.88;;;5.28;;
13034;SDS011;6584;48.022;11.810;2022-07-23T04:46:53;7.03;;;4.78;;
13034;SDS011;6584;48.022;11.810;2022-07-23T04:49:19;5.93;;;5.32;;
13034;SDS011;6584;48.022;11.810;2022-07-23T04:51:44;5.72;;;5.10;;
13034;SDS011;6584;48.022;11.810;2022-07-23T04:54:10;5.53;;;5.10;;
13034;SDS011;6584;48.022;11.810;2022-07-23T04:56:35;5.50;;;5.00;;
13034;SDS011;6584;48.022;11.810;2022-07-23T04:59:01;8.27;;;5.00;;
13034;SDS011;6584;48.022;11.810;2022-07-23T05:01:27;5.63;;;5.13;;
13034;SDS011;6584;48.022;11.810;2022-07-23T05:03:52;5.65;;;5.15;;
13034;SDS011;6584;48.022;11.810;2022-07-23T05:06:18;5.80;;;5.20;;
13034;SDS011;6584;48.022;11.810;2022-07-23T05:08:43;5.63;;;5.10;;
13034;SDS011;6584;48.022;11.810;2022-07-23T05:11:09;5.75;;;5.15;;
13034;SDS011;6584;48.022;11.810;2022-07-23T05:13:34;5.38;;;4.82;;
13034;SDS011;6584;48.022;11.810;2022-07-23T05:16:00;5.40;;;4.95;;
13034;SDS011;6584;48.022;11.810;2022-07-23T05:18:25;5.20;;;4.80;;
13034;SDS011;6584;48.022;11.810;2022-07-23T05:20:51;5.30;;;4.78;;
13034;SDS011;6584;48.022;11.810;2022-07-23T05:23:16;5.85;;;5.35;;
13034;SDS011;6584;48.022;11.810;2022-07-23T05:25:42;5.78;;;5.28;;
13034;SDS011;6584;48.022;11.810;2022-07-23T05:28:07;5.85;;;5.25;;
13034;SDS011;6584;48.022;11.810;2022-07-23T05:30:33;6.13;;;5.05;;
13034;SDS011;6584;48.022;11.810;2022-07-23T05:32:58;7.00;;;5.32;;
13034;SDS011;6584;48.022;11.810;2022-07-23T05:35:24;5.60;;;5.10;;
13034;SDS011;6584;48.022;11.810;2022-07-23T05:37:50;6.28;;;5.68;;
13034;SDS011;6584;48.022;11.810;2022-07-23T05:40:17;9.25;;;5.65;;
13034;SDS011;6584;48.022;11.810;2022-07-23T05:42:43;5.95;;;5.38;;
13034;SDS011;6584;48.022;11.810;2022-07-23T05:45:09;7.25;;;5.53;;
13034;SDS011;6584;48.022;11.810;2022-07-23T05:50:08;6.60;;;5.95;;
13034;SDS011;6584;48.022;11.810;2022-07-23T05:52:34;6.20;;;5.70;;
13034;SDS011;6584;48.022;11.810;2022-07-23T05:54:59;7.65;;;5.60;;
13034;SDS011;6584;48.022;11.810;2022-07-23T05:57:25;7.32;;;5.35;;
13034;SDS011;6584;48.022;11.810;2022-07-23T05:59:50;6.68;;;5.63;;
13034;SDS011;6584;48.022;11.810;2022-07-23T06:02:16;6.07;;;5.47;;
13034;SDS011;6584;48.022;11.810;2022-07-23T06:04:41;10.63;;;5.70;;
13034;SDS011;6584;48.022;11.810;2022-07-23T06:07:07;6.00;;;5.43;;
13034;SDS011;6584;48.022;11.810;2022-07-23T06:09:33;5.78;;;5.25;;
13034;SDS011;6584;48.022;11.810;2022-07-23T06:11:58;6.40;;;5.38;;
13034;SDS011;6584;48.022;11.810;2022-07-23T06:14:24;6.50;;;5.90;;
13034;SDS011;6584;48.022;11.810;2022-07-23T06:16:49;5.80;;;5.32;;
13034;SDS011;6584;48.022;11.810;2022-07-23T06:19:15;7.18;;;5.30;;
13034;SDS011;6584;48.022;11.810;2022-07-23T06:21:40;6.10;;;5.55;;
13034;SDS011;6584;48.022;11.810;2022-07-23T06:24:06;5.40;;;5.00;;
13034;SDS011;6584;48.022;11.810;2022-07-23T06:26:31;5.75;;;5.25;;
13034;SDS011;6584;48.022;11.810;2022-07-23T06:28:57;9.23;;;5.82;;
13034;SDS011;6584;48.022;11.810;2022-07-23T06:31:22;6.15;;;5.53;;
13034;SDS011;6584;48.022;11.810;2022-07-23T06:33:48;9.43;;;5.57;;
13034;SDS011;6584;48.022;11.810;2022-07-23T06:36:13;6.57;;;6.05;;
13034;SDS011;6584;48.022;11.810;2022-07-23T06:38:39;6.72;;;5.28;;
13034;SDS011;6584;48.022;11.810;2022-07-23T06:41:05;5.72;;;5.22;;
13034;SDS011;6584;48.022;11.810;2022-07-23T06:43:30;6.00;;;5.32;;
13034;SDS011;6584;48.022;11.810;2022-07-23T06:45:56;6.65;;;5.95;;
13034;SDS011;6584;48.022;11.810;2022-07-23T06:48:22;5.75;;;5.28;;
13034;SDS011;6584;48.022;11.810;2022-07-23T06:50:47;6.30;;;5.70;;
13034;SDS011;6584;48.022;11.810;2022-07-23T06:53:13;6.20;;;5.68;;
13034;SDS011;6584;48.022;11.810;2022-07-23T06:55:38;6.78;;;6.07;;
13034;SDS011;6584;48.022;11.810;2022-07-23T06:58:05;6.20;;;5.63;;
13034;SDS011;6584;48.022;11.810;2022-07-23T07:00:30;5.75;;;5.25;;
13034;SDS011;6584;48.022;11.810;2022-07-23T07:02:57;5.72;;;5.22;;
13034;SDS011;6584;48.022;11.810;2022-07-23T07:05:23;5.57;;;5.07;;
13034;SDS011;6584;48.022;11.810;2022-07-23T07:07:50;6.35;;;5.75;;
13034;SDS011;6584;48.022;11.810;2022-07-23T07:10:16;6.43;;;5.93;;
13034;SDS011;6584;48.022;11.810;2022-07-23T07:12:42;6.22;;;5.63;;
13034;SDS011;6584;48.022;11.810;2022-07-23T07:15:08;6.05;;;5.55;;
13034;SDS011;6584;48.022;11.810;2022-07-23T07:17:33;6.38;;;5.78;;
13034;SDS011;6584;48.022;11.810;2022-07-23T07:19:59;6.18;;;5.53;;
13034;SDS011;6584;48.022;11.810;2022-07-23T07:22:25;5.57;;;5.07;;
13034;SDS011;6584;48.022;11.810;2022-07-23T07:24:50;5.47;;;5.00;;
13034;SDS011;6584;48.022;11.810;2022-07-23T07:27:16;5.65;;;5.15;;
13034;SDS011;6584;48.022;11.810;2022-07-23T07:29:41;5.53;;;5.13;;
13034;SDS011;6584;48.022;11.810;2022-07-23T07:32:07;5.55;;;5.05;;
13034;SDS011;6584;48.022;11.810;2022-07-23T07:34:32;5.90;;;5.32;;
13034;SDS011;6584;48.022;11.810;2022-07-23T07:36:58;5.65;;;5.13;;
13034;SDS011;6584;48.022;11.810;2022-07-23T07:39:23;5.88;;;5.28;;
13034;SDS011;6584;48.022;11.810;2022-07-23T07:41:49;6.45;;;5.30;;
13034;SDS011;6584;48.022;11.810;2022-07-23T07:44:14;6.35;;;5.75;;
13034;SDS011;6584;48.022;11.810;2022-07-23T07:46:41;9.18;;;5.18;;
13034;SDS011;6584;48.022;11.810;2022-07-23T07:49:07;6.47;;;5.88;;
13034;SDS011;6584;48.022;11.810;2022-07-23T07:51:32;6.03;;;5.53;;
13034;SDS011;6584;48.022;11.810;2022-07-23T07:53:58;6.38;;;5.78;;
13034;SDS011;6584;48.022;11.810;2022-07-23T07:56:24;6.03;;;5.57;;
13034;SDS011;6584;48.022;11.810;2022-07-23T07:58:49;6.80;;;6.15;;
13034;SDS011;6584;48.022;11.810;2022-07-23T08:01:15;5.72;;;5.22;;
13034;SDS011;6584;48.022;11.810;2022-07-23T08:03:41;6.20;;;5.70;;
13034;SDS011;6584;48.022;11.810;2022-07-23T08:06:07;5.68;;;5.18;;
13034;SDS011;6584;48.022;11.810;2022-07-23T08:08:33;6.57;;;5.32;;
13034;SDS011;6584;48.022;11.810;2022-07-23T08:10:59;5.85;;;5.35;;
13034;SDS011;6584;48.022;11.810;2022-07-23T08:13:24;5.55;;;5.05;;
13034;SDS011;6584;48.022;11.810;2022-07-23T08:15:50;6.00;;;5.05;;
13034;SDS011;6584;48.022;11.810;2022-07-23T08:18:17;6.25;;;5.65;;
13034;SDS011;6584;48.022;11.810;2022-07-23T08:20:43;6.70;;;6.10;;
13034;SDS011;6584;48.022;11.810;2022-07-23T08:23:09;6.70;;;5.63;;
13034;SDS011;6584;48.022;11.810;2022-07-23T08:25:39;5.90;;;5.30;;
13034;SDS011;6584;48.022;11.810;2022-07-23T08:28:07;6.32;;;5.72;;
13034;SDS011;6584;48.022;11.810;2022-07-23T08:30:35;5.85;;;5.40;;
13034;SDS011;6584;48.022;11.810;2022-07-23T08:33:06;6.53;;;5.30;;
13034;SDS011;6584;48.022;11.810;2022-07-23T08:35:40;5.97;;;5.38;;
13034;SDS011;6584;48.022;11.810;2022-07-23T08:38:15;6.70;;;5.22;;
13034;SDS011;6584;48.022;11.810;2022-07-23T08:40:42;5.60;;;5.10;;
13034;SDS011;6584;48.022;11.810;2022-07-23T08:43:13;5.70;;;5.20;;
13034;SDS011;6584;48.022;11.810;2022-07-23T08:45:41;5.57;;;5.07;;
13034;SDS011;6584;48.022;11.810;2022-07-23T08:48:13;5.78;;;5.28;;
13034;SDS011;6584;48.022;11.810;2022-07-23T08:50:42;5.85;;;5.25;;
13034;SDS011;6584;48.022;11.810;2022-07-23T08:53:09;5.32;;;4.88;;
13034;SDS011;6584;48.022;11.810;2022-07-23T08:55:35;5.93;;;5.38;;
13034;SDS011;6584;48.022;11.810;2022-07-23T08:58:01;5.63;;;5.05;;
13034;SDS011;6584;48.022;11.810;2022-07-23T09:00:27;5.63;;;5.13;;
13034;SDS011;6584;48.022;11.810;2022-07-23T09:02:53;7.63;;;4.88;;
13034;SDS011;6584;48.022;11.810;2022-07-23T09:05:19;5.15;;;4.75;;
13034;SDS011;6584;48.022;11.810;2022-07-23T09:16:04;4.88;;;4.47;;
13034;SDS011;6584;48.022;11.810;2022-07-23T09:18:54;5.35;;;4.88;;
13034;SDS011;6584;48.022;11.810;2022-07-23T09:21:34;5.57;;;5.10;;
13034;SDS011;6584;48.022;11.810;2022-07-23T09:24:08;5.43;;;5.03;;
13034;SDS011;6584;48.022;11.810;2022-07-23T09:26:36;6.43;;;4.72;;
13034;SDS011;6584;48.022;11.810;2022-07-23T09:31:42;5.18;;;4.72;;
13034;SDS011;6584;48.022;11.810;2022-07-23T09:34:15;4.78;;;4.38;;
13034;SDS011;6584;48.022;11.810;2022-07-23T09:36:41;4.78;;;4.38;;
13034;SDS011;6584;48.022;11.810;2022-07-23T09:39:08;5.07;;;4.68;;
13034;SDS011;6584;48.022;11.810;2022-07-23T09:41:35;6.03;;;4.70;;
13034;SDS011;6584;48.022;11.810;2022-07-23T09:44:09;5.00;;;4.60;;
13034;SDS011;6584;48.022;11.810;2022-07-23T09:46:39;4.90;;;4.47;;
13034;SDS011;6584;48.022;11.810;2022-07-23T09:49:13;5.45;;;4.95;;
13034;SDS011;6584;48.022;11.810;2022-07-23T09:52:01;6.10;;;4.80;;
13034;SDS011;6584;48.022;11.810;2022-07-23T09:54:35;6.43;;;4.72;;
13034;SDS011;6584;48.022;11.810;2022-07-23T09:57:02;5.20;;;4.80;;
13034;SDS011;6584;48.022;11.810;2022-07-23T09:59:32;5.97;;;5.18;;
13034;SDS011;6584;48.022;11.810;2022-07-23T10:02:03;4.93;;;4.53;;
13034;SDS011;6584;48.022;11.810;2022-07-23T10:04:30;5.50;;;5.00;;
13034;SDS011;6584;48.022;11.810;2022-07-23T10:07:00;5.35;;;4.85;;
13034;SDS011;6584;48.022;11.810;2022-07-23T10:09:31;7.22;;;5.70;;
13034;SDS011;6584;48.022;11.810;2022-07-23T10:12:02;5.75;;;5.20;;
13034;SDS011;6584;48.022;11.810;2022-07-23T10:14:34;5.32;;;4.70;;
13034;SDS011;6584;48.022;11.810;2022-07-23T10:17:03;4.90;;;4.50;;
13034;SDS011;6584;48.022;11.810;2022-07-23T10:19:29;4.85;;;4.47;;
13034;SDS011;6584;48.022;11.810;2022-07-23T10:21:57;5.40;;;4.90;;
13034;SDS011;6584;48.022;11.810;2022-07-23T10:24:30;5.45;;;4.88;;
13034;SDS011;6584;48.022;11.810;2022-07-23T10:29:57;7.60;;;5.05;;
13034;SDS011;6584;48.022;11.810;2022-07-23T10:41:01;6.60;;;5.20;;
13034;SDS011;6584;48.022;11.810;2022-07-23T10:43:28;6.28;;;5.05;;
13034;SDS011;6584;48.022;11.810;2022-07-23T10:45:55;7.15;;;5.40;;
13034;SDS011;6584;48.022;11.810;2022-07-23T10:48:41;5.80;;;5.30;;
13034;SDS011;6584;48.022;11.810;2022-07-23T10:59:13;5.55;;;5.05;;
13034;SDS011;6584;48.022;11.810;2022-07-23T11:01:39;5.80;;;5.00;;
13034;SDS011;6584;48.022;11.810;2022-07-23T11:04:05;5.68;;;5.18;;
13034;SDS011;6584;48.022;11.810;2022-07-23T11:09:29;5.57;;;5.00;;
13034;SDS011;6584;48.022;11.810;2022-07-23T11:15:00;5.32;;;4.82;;
13034;SDS011;6584;48.022;11.810;2022-07-23T11:17:31;5.50;;;5.00;;
13034;SDS011;6584;48.022;11.810;2022-07-23T11:22:56;5.30;;;4.80;;
13034;SDS011;6584;48.022;11.810;2022-07-23T11:27:54;5.05;;;4.65;;
13034;SDS011;6584;48.022;11.810;2022-07-23T11:35:32;5.45;;;4.85;;
13034;SDS011;6584;48.022;11.810;2022-07-23T11:38:06;5.45;;;5.05;;
13034;SDS011;6584;48.022;11.810;2022-07-23T11:40:49;5.80;;;5.15;;
13034;SDS011;6584;48.022;11.810;2022-07-23T11:43:19;5.82;;;5.20;;
13034;SDS011;6584;48.022;11.810;2022-07-23T11:45:46;5.63;;;5.13;;
13034;SDS011;6584;48.022;11.810;2022-07-23T11:48:24;6.45;;;5.05;;
13034;SDS011;6584;48.022;11.810;2022-07-23T11:50:52;7.20;;;4.97;;
13034;SDS011;6584;48.022;11.810;2022-07-23T11:53:31;5.50;;;5.03;;
13034;SDS011;6584;48.022;11.810;2022-07-23T11:56:05;7.70;;;5.78;;
13034;SDS011;6584;48.022;11.810;2022-07-23T11:58:32;5.88;;;5.38;;
13034;SDS011;6584;48.022;11.810;2022-07-23T12:00:58;6.43;;;5.38;;
13034;SDS011;6584;48.022;11.810;2022-07-23T12:03:23;5.60;;;5.10;;
13034;SDS011;6584;48.022;11.810;2022-07-23T12:05:50;10.82;;;5.45;;
13034;SDS011;6584;48.022;11.810;2022-07-23T12:08:21;6.18;;;5.55;;
13034;SDS011;6584;48.022;11.810;2022-07-23T12:10:47;5.68;;;5.25;;
13034;SDS011;6584;48.022;11.810;2022-07-23T12:13:16;7.88;;;5.20;;
13034;SDS011;6584;48.022;11.810;2022-07-23T12:18:12;5.88;;;5.35;;
13034;SDS011;6584;48.022;11.810;2022-07-23T12:20:42;6.03;;;5.45;;
13034;SDS011;6584;48.022;11.810;2022-07-23T12:23:29;6.18;;;4.75;;
13034;SDS011;6584;48.022;11.810;2022-07-23T12:25:54;5.72;;;5.22;;
13034;SDS011;6584;48.022;11.810;2022-07-23T12:28:29;7.60;;;5.20;;
13034;SDS011;6584;48.022;11.810;2022-07-23T12:30:57;5.88;;;5.35;;
13034;SDS011;6584;48.022;11.810;2022-07-23T12:33:28;5.30;;;4.80;;
13034;SDS011;6584;48.022;11.810;2022-07-23T12:36:02;6.00;;;5.50;;
13034;SDS011;6584;48.022;11.810;2022-07-23T12:38:37;5.95;;;5.45;;
13034;SDS011;6584;48.022;11.810;2022-07-23T12:41:05;5.10;;;4.70;;
13034;SDS011;6584;48.022;11.810;2022-07-23T12:43:35;7.35;;;5.30;;
13034;SDS011;6584;48.022;11.810;2022-07-23T12:48:37;5.22;;;4.82;;
13034;SDS011;6584;48.022;11.810;2022-07-23T12:51:08;6.13;;;5.00;;
13034;SDS011;6584;48.022;11.810;2022-07-23T12:53:41;5.78;;;4.97;;
13034;SDS011;6584;48.022;11.810;2022-07-23T12:56:13;5.30;;;4.88;;
13034;SDS011;6584;48.022;11.810;2022-07-23T12:58:53;5.57;;;5.07;;
13034;SDS011;6584;48.022;11.810;2022-07-23T13:01:26;5.40;;;4.90;;
13034;SDS011;6584;48.022;11.810;2022-07-23T13:06:33;5.20;;;4.75;;
13034;SDS011;6584;48.022;11.810;2022-07-23T13:09:02;5.40;;;4.90;;
13034;SDS011;6584;48.022;11.810;2022-07-23T13:11:29;5.38;;;4.88;;
13034;SDS011;6584;48.022;11.810;2022-07-23T13:13:54;5.43;;;4.93;;
13034;SDS011;6584;48.022;11.810;2022-07-23T13:16:20;4.95;;;4.45;;
13034;SDS011;6584;48.022;11.810;2022-07-23T13:18:46;4.68;;;4.28;;
13034;SDS011;6584;48.022;11.810;2022-07-23T13:21:11;5.57;;;4.32;;
13034;SDS011;6584;48.022;11.810;2022-07-23T13:23:37;7.30;;;4.45;;
13034;SDS011;6584;48.022;11.810;2022-07-23T13:26:03;4.68;;;4.28;;
13034;SDS011;6584;48.022;11.810;2022-07-23T13:28:28;4.88;;;4.40;;
13034;SDS011;6584;48.022;11.810;2022-07-23T13:30:54;5.07;;;4.60;;
13034;SDS011;6584;48.022;11.810;2022-07-23T13:33:21;5.05;;;4.65;;
13034;SDS011;6584;48.022;11.810;2022-07-23T13:35:48;5.55;;;4.25;;
13034;SDS011;6584;48.022;11.810;2022-07-23T13:38:14;5.03;;;4.57;;
13034;SDS011;6584;48.022;11.810;2022-07-23T13:40:42;4.90;;;4.50;;
13034;SDS011;6584;48.022;11.810;2022-07-23T13:43:11;5.63;;;4.88;;
13034;SDS011;6584;48.022;11.810;2022-07-23T13:45:39;5.72;;;5.22;;
13034;SDS011;6584;48.022;11.810;2022-07-23T13:48:07;6.35;;;4.82;;
13034;SDS011;6584;48.022;11.810;2022-07-23T13:50:34;5.75;;;4.82;;
13034;SDS011;6584;48.022;11.810;2022-07-23T13:53:08;5.65;;;4.90;;
13034;SDS011;6584;48.022;11.810;2022-07-23T13:55:36;5.10;;;4.60;;
13034;SDS011;6584;48.022;11.810;2022-07-23T13:58:04;5.38;;;4.93;;
13034;SDS011;6584;48.022;11.810;2022-07-23T14:00:31;5.25;;;4.75;;
13034;SDS011;6584;48.022;11.810;2022-07-23T14:02:58;5.72;;;5.13;;
13034;SDS011;6584;48.022;11.810;2022-07-23T14:05:24;5.72;;;4.70;;
13034;SDS011;6584;48.022;11.810;2022-07-23T14:07:50;5.50;;;5.00;;
13034;SDS011;6584;48.022;11.810;2022-07-23T14:10:17;5.40;;;4.90;;
13034;SDS011;6584;48.022;11.810;2022-07-23T14:12:44;5.72;;;5.07;;
13034;SDS011;6584;48.022;11.810;2022-07-23T14:15:10;5.07;;;4.68;;
13034;SDS011;6584;48.022;11.810;2022-07-23T14:17:37;4.70;;;4.30;;
13034;SDS011;6584;48.022;11.810;2022-07-23T14:20:05;5.20;;;4.40;;
13034;SDS011;6584;48.022;11.810;2022-07-23T14:22:31;5.28;;;4.78;;
13034;SDS011;6584;48.022;11.810;2022-07-23T14:24:57;6.22;;;4.72;;
13034;SDS011;6584;48.022;11.810;2022-07-23T14:27:23;5.25;;;4.80;;
13034;SDS011;6584;48.022;11.810;2022-07-23T14:29:50;5.45;;;4.80;;
13034;SDS011;6584;48.022;11.810;2022-07-23T14:32:15;5.20;;;4.70;;
13034;SDS011;6584;48.022;11.810;2022-07-23T14:34:41;5.53;;;5.00;;
13034;SDS011;6584;48.022;11.810;2022-07-23T14:37:07;5.25;;;4.75;;
13034;SDS011;6584;48.022;11.810;2022-07-23T14:39:34;5.05;;;4.65;;
13034;SDS011;6584;48.022;11.810;2022-07-23T14:41:59;6.65;;;5.28;;
13034;SDS011;6584;48.022;11.810;2022-07-23T14:44:25;5.90;;;4.78;;
13034;SDS011;6584;48.022;11.810;2022-07-23T14:46:50;4.95;;;4.55;;
13034;SDS011;6584;48.022;11.810;2022-07-23T14:49:16;5.75;;;5.20;;
13034;SDS011;6584;48.022;11.810;2022-07-23T14:51:42;5.47;;;4.97;;
13034;SDS011;6584;48.022;11.810;2022-07-23T14:54:08;5.15;;;4.75;;
13034;SDS011;6584;48.022;11.810;2022-07-23T14:56:34;5.25;;;4.75;;
13034;SDS011;6584;48.022;11.810;2022-07-23T14:59:01;5.40;;;4.78;;
13034;SDS011;6584;48.022;11.810;2022-07-23T15:01:28;5.68;;;5.18;;
13034;SDS011;6584;48.022;11.810;2022-07-23T15:03:54;6.25;;;5.50;;
13034;SDS011;6584;48.022;11.810;2022-07-23T15:06:19;5.85;;;5.20;;
13034;SDS011;6584;48.022;11.810;2022-07-23T15:08:45;5.75;;;5.25;;
13034;SDS011;6584;48.022;11.810;2022-07-23T15:11:11;5.85;;;5.30;;
13034;SDS011;6584;48.022;11.810;2022-07-23T15:13:37;5.30;;;4.90;;
13034;SDS011;6584;48.022;11.810;2022-07-23T15:16:03;6.80;;;5.20;;
13034;SDS011;6584;48.022;11.810;2022-07-23T15:18:30;5.85;;;5.35;;
13034;SDS011;6584;48.022;11.810;2022-07-23T15:20:55;5.40;;;4.90;;
13034;SDS011;6584;48.022;11.810;2022-07-23T15:23:21;5.25;;;4.78;;
13034;SDS011;6584;48.022;11.810;2022-07-23T15:25:47;6.35;;;5.78;;
13034;SDS011;6584;48.022;11.810;2022-07-23T15:28:13;5.50;;;5.10;;
13034;SDS011;6584;48.022;11.810;2022-07-23T15:30:38;6.22;;;5.72;;
13034;SDS011;6584;48.022;11.810;2022-07-23T15:33:04;6.10;;;5.50;;
13034;SDS011;6584;48.022;11.810;2022-07-23T15:35:30;6.63;;;5.88;;
13034;SDS011;6584;48.022;11.810;2022-07-23T15:37:56;7.35;;;5.95;;
13034;SDS011;6584;48.022;11.810;2022-07-23T15:40:22;5.82;;;5.25;;
13034;SDS011;6584;48.022;11.810;2022-07-23T15:42:48;5.55;;;5.05;;
13034;SDS011;6584;48.022;11.810;2022-07-23T15:45:14;6.43;;;5.65;;